sensor_id;sensor_type;location;lat;lon;timestamp;pressure;altitude;pressure_sealevel;temperature;humidity
29215;BME280;16252;49.816;7.964;2023-11-21T00:01:47;99315.69;;;11.95;73.87
29215;BME280;16252;49.816;7.964;2023-11-21T00:04:12;99263.50;;;11.60;73.80
29215;BME280;16252;49.816;7.964;2023-11-21T00:06:38;99274.91;;;11.71;74.00
29215;BME280;16252;49.816;7.964;2023-11-21T00:09:03;99286.34;;;11.83;73.90
29215;BME280;16252;49.816;7.964;2023-11-21T00:11:30;99294.13;;;11.86;73.90
29215;BME280;16252;49.816;7.964;2023-11-21T00:13:55;99285.63;;;11.81;74.19
29215;BME280;16252;49.816;7.964;2023-11-21T00:16:20;99281.69;;;11.85;74.01
29215;BME280;16252;49.816;7.964;2023-11-21T00:18:47;99287.50;;;11.90;74.09
29215;BME280;16252;49.816;7.964;2023-11-21T00:21:12;99287.63;;;11.99;73.99
29215;BME280;16252;49.816;7.964;2023-11-21T00:23:37;99281.53;;;11.97;74.03
29215;BME280;16252;49.816;7.964;2023-11-21T00:26:03;99301.97;;;12.07;74.08
29215;BME280;16252;49.816;7.964;2023-11-21T00:28:29;99299.47;;;12.06;73.95
29215;BME280;16252;49.816;7.964;2023-11-21T00:30:55;99277.72;;;11.99;74.24
29215;BME280;16252;49.816;7.964;2023-11-21T00:33:20;99295.47;;;12.10;73.95
29215;BME280;16252;49.816;7.964;2023-11-21T00:35:45;99286.06;;;12.06;74.19
29215;BME280;16252;49.816;7.964;2023-11-21T00:38:11;99309.16;;;12.17;74.10
29215;BME280;16252;49.816;7.964;2023-11-21T00:40:36;99304.09;;;12.13;74.02
29215;BME280;16252;49.816;7.964;2023-11-21T00:43:01;99303.94;;;12.15;73.95
29215;BME280;16252;49.816;7.964;2023-11-21T00:45:27;99268.13;;;11.97;74.04
29215;BME280;16252;49.816;7.964;2023-11-21T00:47:52;99305.34;;;12.19;73.96
29215;BME280;16252;49.816;7.964;2023-11-21T00:50:17;99297.03;;;12.12;73.91
29215;BME280;16252;49.816;7.964;2023-11-21T00:52:43;99292.97;;;12.08;74.15
29215;BME280;16252;49.816;7.964;2023-11-21T00:55:11;99308.16;;;12.18;74.08
29215;BME280;16252;49.816;7.964;2023-11-21T00:57:37;99324.81;;;12.31;74.33
29215;BME280;16252;49.816;7.964;2023-11-21T01:00:03;99311.25;;;12.23;74.09
29215;BME280;16252;49.816;7.964;2023-11-21T01:02:32;99296.19;;;12.22;74.13
29215;BME280;16252;49.816;7.964;2023-11-21T01:04:58;99307.31;;;12.27;74.11
29215;BME280;16252;49.816;7.964;2023-11-21T01:07:23;99301.09;;;12.26;73.92
29215;BME280;16252;49.816;7.964;2023-11-21T01:09:49;99300.69;;;12.21;74.09
29215;BME280;16252;49.816;7.964;2023-11-21T01:12:14;99309.28;;;12.25;74.01
29215;BME280;16252;49.816;7.964;2023-11-21T01:14:40;99322.97;;;12.31;73.96
29215;BME280;16252;49.816;7.964;2023-11-21T01:17:05;99316.91;;;12.29;73.77
29215;BME280;16252;49.816;7.964;2023-11-21T01:19:31;99326.38;;;12.33;74.13
29215;BME280;16252;49.816;7.964;2023-11-21T01:21:56;99311.00;;;12.26;73.86
29215;BME280;16252;49.816;7.964;2023-11-21T01:24:23;99307.75;;;12.22;73.98
29215;BME280;16252;49.816;7.964;2023-11-21T01:26:48;99332.28;;;12.37;74.09
29215;BME280;16252;49.816;7.964;2023-11-21T01:29:13;99318.34;;;12.24;74.13
29215;BME280;16252;49.816;7.964;2023-11-21T01:31:40;99299.03;;;12.10;73.88
29215;BME280;16252;49.816;7.964;2023-11-21T01:34:05;99280.41;;;11.99;73.83
29215;BME280;16252;49.816;7.964;2023-11-21T01:36:31;99329.31;;;12.30;73.71
29215;BME280;16252;49.816;7.964;2023-11-21T01:39:00;99283.66;;;12.03;73.59
29215;BME280;16252;49.816;7.964;2023-11-21T01:41:26;99273.09;;;11.91;73.84
29215;BME280;16252;49.816;7.964;2023-11-21T01:43:56;99323.69;;;12.24;73.99
29215;BME280;16252;49.816;7.964;2023-11-21T01:46:22;99324.00;;;12.21;74.21
29215;BME280;16252;49.816;7.964;2023-11-21T01:48:48;99332.16;;;12.19;74.13
29215;BME280;16252;49.816;7.964;2023-11-21T01:51:15;99288.44;;;11.99;73.94
29215;BME280;16252;49.816;7.964;2023-11-21T01:53:40;99302.69;;;12.09;74.03
29215;BME280;16252;49.816;7.964;2023-11-21T01:56:07;99352.72;;;12.38;74.10
29215;BME280;16252;49.816;7.964;2023-11-21T01:58:33;99336.53;;;12.30;74.17
29215;BME280;16252;49.816;7.964;2023-11-21T02:00:59;99344.69;;;12.38;74.35
29215;BME280;16252;49.816;7.964;2023-11-21T02:03:24;99366.00;;;12.40;73.88
29215;BME280;16252;49.816;7.964;2023-11-21T02:05:52;99324.53;;;12.24;74.26
29215;BME280;16252;49.816;7.964;2023-11-21T02:08:18;99337.22;;;12.32;74.49
29215;BME280;16252;49.816;7.964;2023-11-21T02:10:44;99324.00;;;12.21;74.17
29215;BME280;16252;49.816;7.964;2023-11-21T02:13:10;99340.03;;;12.30;74.16
29215;BME280;16252;49.816;7.964;2023-11-21T02:15:36;99341.19;;;12.28;74.04
29215;BME280;16252;49.816;7.964;2023-11-21T02:18:04;99334.56;;;12.22;73.87
29215;BME280;16252;49.816;7.964;2023-11-21T02:20:32;99357.41;;;12.36;73.84
29215;BME280;16252;49.816;7.964;2023-11-21T02:23:00;99326.41;;;12.14;74.05
29215;BME280;16252;49.816;7.964;2023-11-21T02:25:28;99351.06;;;12.27;73.85
29215;BME280;16252;49.816;7.964;2023-11-21T02:27:57;99341.34;;;12.26;74.08
29215;BME280;16252;49.816;7.964;2023-11-21T02:30:23;99355.16;;;12.31;73.83
29215;BME280;16252;49.816;7.964;2023-11-21T02:32:50;99300.59;;;11.93;74.22
29215;BME280;16252;49.816;7.964;2023-11-21T02:35:18;99343.59;;;12.21;74.17
29215;BME280;16252;49.816;7.964;2023-11-21T02:37:46;99359.69;;;12.31;73.90
29215;BME280;16252;49.816;7.964;2023-11-21T02:40:11;99304.53;;;11.99;73.96
29215;BME280;16252;49.816;7.964;2023-11-21T02:42:38;99357.03;;;12.21;74.12
29215;BME280;16252;49.816;7.964;2023-11-21T02:45:03;99359.53;;;12.23;74.02
29215;BME280;16252;49.816;7.964;2023-11-21T02:47:29;99362.50;;;12.20;73.94
29215;BME280;16252;49.816;7.964;2023-11-21T02:49:55;99362.50;;;12.20;73.97
29215;BME280;16252;49.816;7.964;2023-11-21T02:52:20;99348.13;;;12.11;74.12
29215;BME280;16252;49.816;7.964;2023-11-21T02:54:45;99374.78;;;12.22;74.23
29215;BME280;16252;49.816;7.964;2023-11-21T02:57:10;99370.00;;;12.16;74.42
29215;BME280;16252;49.816;7.964;2023-11-21T02:59:36;99376.09;;;12.18;74.30
29215;BME280;16252;49.816;7.964;2023-11-21T03:02:01;99379.03;;;12.15;74.16
29215;BME280;16252;49.816;7.964;2023-11-21T03:04:26;99366.19;;;12.09;74.29
29215;BME280;16252;49.816;7.964;2023-11-21T03:06:55;99358.03;;;12.01;74.33
29215;BME280;16252;49.816;7.964;2023-11-21T03:09:20;99329.06;;;11.85;74.05
29215;BME280;16252;49.816;7.964;2023-11-21T03:11:45;99329.06;;;11.85;74.28
29215;BME280;16252;49.816;7.964;2023-11-21T03:14:10;99360.00;;;11.99;74.27
29215;BME280;16252;49.816;7.964;2023-11-21T03:16:36;99369.31;;;12.04;74.20
29215;BME280;16252;49.816;7.964;2023-11-21T03:19:03;99360.84;;;11.99;74.25
29215;BME280;16252;49.816;7.964;2023-11-21T03:21:28;99375.78;;;12.02;74.26
29215;BME280;16252;49.816;7.964;2023-11-21T03:23:54;99368.16;;;11.97;74.04
29215;BME280;16252;49.816;7.964;2023-11-21T03:26:19;99382.88;;;12.03;74.22
29215;BME280;16252;49.816;7.964;2023-11-21T03:28:45;99350.66;;;11.83;74.09
29215;BME280;16252;49.816;7.964;2023-11-21T03:31:11;99376.50;;;11.94;74.15
29215;BME280;16252;49.816;7.964;2023-11-21T03:33:36;99402.19;;;12.06;74.32
29215;BME280;16252;49.816;7.964;2023-11-21T03:36:02;99378.88;;;11.87;74.20
29215;BME280;16252;49.816;7.964;2023-11-21T03:38:28;99388.75;;;11.87;74.29
29215;BME280;16252;49.816;7.964;2023-11-21T03:40:54;99371.38;;;11.71;74.30
29215;BME280;16252;49.816;7.964;2023-11-21T03:43:21;99384.22;;;11.78;74.49
29215;BME280;16252;49.816;7.964;2023-11-21T03:45:47;99396.75;;;11.77;74.77
29215;BME280;16252;49.816;7.964;2023-11-21T03:48:12;99369.56;;;11.62;74.69
29215;BME280;16252;49.816;7.964;2023-11-21T03:50:38;99397.34;;;11.81;74.67
29215;BME280;16252;49.816;7.964;2023-11-21T03:53:04;99420.22;;;11.95;74.61
29215;BME280;16252;49.816;7.964;2023-11-21T03:55:29;99428.28;;;11.95;74.63
29215;BME280;16252;49.816;7.964;2023-11-21T03:57:56;99385.34;;;11.65;74.64
29215;BME280;16252;49.816;7.964;2023-11-21T04:00:22;99423.03;;;11.83;74.58
29215;BME280;16252;49.816;7.964;2023-11-21T04:02:47;99416.81;;;11.83;74.69
29215;BME280;16252;49.816;7.964;2023-11-21T04:05:12;99430.69;;;11.88;74.72
29215;BME280;16252;49.816;7.964;2023-11-21T04:07:38;99395.66;;;11.70;74.61
29215;BME280;16252;49.816;7.964;2023-11-21T04:10:04;99431.38;;;11.90;74.67
29215;BME280;16252;49.816;7.964;2023-11-21T04:12:32;99420.19;;;11.85;74.70
29215;BME280;16252;49.816;7.964;2023-11-21T04:14:57;99419.63;;;11.81;74.94
29215;BME280;16252;49.816;7.964;2023-11-21T04:17:23;99419.34;;;11.84;74.84
29215;BME280;16252;49.816;7.964;2023-11-21T04:19:48;99425.56;;;11.85;74.91
29215;BME280;16252;49.816;7.964;2023-11-21T04:22:13;99430.91;;;11.85;74.91
29215;BME280;16252;49.816;7.964;2023-11-21T04:24:38;99417.38;;;11.77;74.86
29215;BME280;16252;49.816;7.964;2023-11-21T04:27:04;99435.44;;;11.84;74.70
29215;BME280;16252;49.816;7.964;2023-11-21T04:29:29;99449.88;;;11.93;74.77
29215;BME280;16252;49.816;7.964;2023-11-21T04:31:55;99447.31;;;11.91;74.80
29215;BME280;16252;49.816;7.964;2023-11-21T04:34:20;99444.78;;;11.90;74.71
29215;BME280;16252;49.816;7.964;2023-11-21T04:36:45;99441.53;;;11.86;74.72
29215;BME280;16252;49.816;7.964;2023-11-21T04:39:11;99440.94;;;11.83;74.86
29215;BME280;16252;49.816;7.964;2023-11-21T04:41:37;99460.72;;;11.91;74.71
29215;BME280;16252;49.816;7.964;2023-11-21T04:44:07;99452.63;;;11.82;74.68
29215;BME280;16252;49.816;7.964;2023-11-21T04:46:33;99470.63;;;11.91;74.65
29215;BME280;16252;49.816;7.964;2023-11-21T04:48:58;99463.69;;;11.88;74.75
29215;BME280;16252;49.816;7.964;2023-11-21T04:51:23;99460.84;;;11.90;74.62
29215;BME280;16252;49.816;7.964;2023-11-21T04:53:49;99449.84;;;11.83;74.64
29215;BME280;16252;49.816;7.964;2023-11-21T04:56:14;99463.94;;;11.85;74.76
29215;BME280;16252;49.816;7.964;2023-11-21T04:58:41;99469.72;;;11.81;74.57
29215;BME280;16252;49.816;7.964;2023-11-21T05:01:07;99480.34;;;11.92;74.66
29215;BME280;16252;49.816;7.964;2023-11-21T05:03:33;99488.66;;;11.89;74.64
29215;BME280;16252;49.816;7.964;2023-11-21T05:05:59;99481.84;;;11.85;74.49
29215;BME280;16252;49.816;7.964;2023-11-21T05:08:24;99480.84;;;11.76;74.54
29215;BME280;16252;49.816;7.964;2023-11-21T05:10:51;99491.00;;;11.82;74.81
29215;BME280;16252;49.816;7.964;2023-11-21T05:13:17;99477.16;;;11.67;74.65
29215;BME280;16252;49.816;7.964;2023-11-21T05:15:43;99496.66;;;11.79;74.59
29215;BME280;16252;49.816;7.964;2023-11-21T05:18:09;99515.28;;;11.81;74.76
29215;BME280;16252;49.816;7.964;2023-11-21T05:20:35;99499.72;;;11.75;74.77
29215;BME280;16252;49.816;7.964;2023-11-21T05:23:00;99520.38;;;11.84;74.80
29215;BME280;16252;49.816;7.964;2023-11-21T05:25:25;99496.38;;;11.73;74.73
29215;BME280;16252;49.816;7.964;2023-11-21T05:27:51;99530.97;;;11.85;74.45
29215;BME280;16252;49.816;7.964;2023-11-21T05:30:16;99495.34;;;11.64;74.51
29215;BME280;16252;49.816;7.964;2023-11-21T05:32:41;99525.28;;;11.79;74.42
29215;BME280;16252;49.816;7.964;2023-11-21T05:35:11;99531.47;;;12.00;73.75
29215;BME280;16252;49.816;7.964;2023-11-21T05:37:41;99477.09;;;11.48;74.01
29215;BME280;16252;49.816;7.964;2023-11-21T05:40:07;99519.75;;;11.70;74.18
29215;BME280;16252;49.816;7.964;2023-11-21T05:42:34;99543.19;;;11.78;74.13
29215;BME280;16252;49.816;7.964;2023-11-21T05:44:59;99529.31;;;11.63;74.30
29215;BME280;16252;49.816;7.964;2023-11-21T05:47:36;99554.88;;;11.77;74.68
29215;BME280;16252;49.816;7.964;2023-11-21T05:50:03;99521.69;;;11.59;74.31
29215;BME280;16252;49.816;7.964;2023-11-21T05:52:28;99536.66;;;11.61;74.46
29215;BME280;16252;49.816;7.964;2023-11-21T05:54:53;99551.78;;;11.72;74.50
29215;BME280;16252;49.816;7.964;2023-11-21T05:57:18;99556.56;;;11.68;74.31
29215;BME280;16252;49.816;7.964;2023-11-21T05:59:44;99533.41;;;11.58;74.22
29215;BME280;16252;49.816;7.964;2023-11-21T06:02:11;99562.91;;;11.67;74.21
29215;BME280;16252;49.816;7.964;2023-11-21T06:04:36;99551.03;;;11.60;74.36
29215;BME280;16252;49.816;7.964;2023-11-21T06:07:02;99528.13;;;11.46;74.15
29215;BME280;16252;49.816;7.964;2023-11-21T06:09:27;99549.19;;;11.61;74.36
29215;BME280;16252;49.816;7.964;2023-11-21T06:11:52;99560.47;;;11.64;74.28
29215;BME280;16252;49.816;7.964;2023-11-21T06:14:18;99568.53;;;11.64;74.36
29215;BME280;16252;49.816;7.964;2023-11-21T06:16:43;99578.28;;;11.65;74.58
29215;BME280;16252;49.816;7.964;2023-11-21T06:19:10;99571.88;;;11.57;74.32
29215;BME280;16252;49.816;7.964;2023-11-21T06:21:35;99581.63;;;11.58;74.26
29215;BME280;16252;49.816;7.964;2023-11-21T06:24:00;99534.25;;;11.27;74.22
29215;BME280;16252;49.816;7.964;2023-11-21T06:26:26;99568.75;;;11.52;74.35
29215;BME280;16252;49.816;7.964;2023-11-21T06:28:52;99584.88;;;11.61;74.53
29215;BME280;16252;49.816;7.964;2023-11-21T06:31:18;99573.25;;;11.51;74.38
29215;BME280;16252;49.816;7.964;2023-11-21T06:33:44;99591.34;;;11.59;74.36
29215;BME280;16252;49.816;7.964;2023-11-21T06:36:09;99580.91;;;11.56;74.14
29215;BME280;16252;49.816;7.964;2023-11-21T06:38:36;99602.50;;;11.64;74.26
29215;BME280;16252;49.816;7.964;2023-11-21T06:41:02;99596.88;;;11.57;74.14
29215;BME280;16252;49.816;7.964;2023-11-21T06:43:27;99601.22;;;11.58;74.28
29215;BME280;16252;49.816;7.964;2023-11-21T06:45:52;99604.63;;;11.60;74.28
29215;BME280;16252;49.816;7.964;2023-11-21T06:48:18;99604.19;;;11.55;74.16
29215;BME280;16252;49.816;7.964;2023-11-21T06:50:43;99625.06;;;11.61;74.37
29215;BME280;16252;49.816;7.964;2023-11-21T06:53:09;99617.31;;;11.58;74.47
29215;BME280;16252;49.816;7.964;2023-11-21T06:55:34;99609.94;;;11.50;74.33
29215;BME280;16252;49.816;7.964;2023-11-21T06:58:00;99604.84;;;11.47;74.25
29215;BME280;16252;49.816;7.964;2023-11-21T07:00:26;99626.44;;;11.56;74.30
29215;BME280;16252;49.816;7.964;2023-11-21T07:02:53;99607.47;;;11.38;74.25
29215;BME280;16252;49.816;7.964;2023-11-21T07:05:20;99616.91;;;11.42;74.45
29215;BME280;16252;49.816;7.964;2023-11-21T07:07:46;99642.66;;;11.54;74.40
29215;BME280;16252;49.816;7.964;2023-11-21T07:10:13;99667.44;;;11.67;74.51
29215;BME280;16252;49.816;7.964;2023-11-21T07:12:38;99662.31;;;11.64;74.47
29215;BME280;16252;49.816;7.964;2023-11-21T07:15:05;99643.75;;;11.52;74.29
29215;BME280;16252;49.816;7.964;2023-11-21T07:17:34;99669.13;;;11.68;74.18
29215;BME280;16252;49.816;7.964;2023-11-21T07:20:00;99645.47;;;11.53;74.37
29215;BME280;16252;49.816;7.964;2023-11-21T07:22:25;99678.38;;;11.64;74.18
29215;BME280;16252;49.816;7.964;2023-11-21T07:24:50;99683.63;;;11.66;74.38
29215;BME280;16252;49.816;7.964;2023-11-21T07:27:16;99685.75;;;11.62;74.27
29215;BME280;16252;49.816;7.964;2023-11-21T07:29:41;99676.25;;;11.58;74.48
29215;BME280;16252;49.816;7.964;2023-11-21T07:32:07;99695.19;;;11.66;74.42
29215;BME280;16252;49.816;7.964;2023-11-21T07:34:34;99700.28;;;11.69;74.31
29215;BME280;16252;49.816;7.964;2023-11-21T07:36:59;99702.00;;;11.70;74.31
29215;BME280;16252;49.816;7.964;2023-11-21T07:39:25;99709.03;;;11.71;74.58
29215;BME280;16252;49.816;7.964;2023-11-21T07:41:50;99690.22;;;11.62;74.38
29215;BME280;16252;49.816;7.964;2023-11-21T07:44:16;99702.97;;;11.69;74.46
29215;BME280;16252;49.816;7.964;2023-11-21T07:46:42;99700.81;;;11.63;74.34
29215;BME280;16252;49.816;7.964;2023-11-21T07:49:07;99703.22;;;11.66;74.32
29215;BME280;16252;49.816;7.964;2023-11-21T07:51:33;99696.00;;;11.57;74.51
29215;BME280;16252;49.816;7.964;2023-11-21T07:53:58;99718.94;;;11.71;74.45
29215;BME280;16252;49.816;7.964;2023-11-21T07:56:23;99717.34;;;11.68;74.42
29215;BME280;16252;49.816;7.964;2023-11-21T07:58:49;99734.72;;;11.74;74.66
29215;BME280;16252;49.816;7.964;2023-11-21T08:01:15;99728.53;;;11.74;74.50
29215;BME280;16252;49.816;7.964;2023-11-21T08:03:40;99712.66;;;11.61;74.13
29215;BME280;16252;49.816;7.964;2023-11-21T08:06:06;99724.94;;;11.63;74.32
29215;BME280;16252;49.816;7.964;2023-11-21T08:08:31;99708.06;;;11.52;74.17
29215;BME280;16252;49.816;7.964;2023-11-21T08:10:57;99740.38;;;11.71;74.25
29215;BME280;16252;49.816;7.964;2023-11-21T08:13:24;99745.59;;;11.73;74.38
29215;BME280;16252;49.816;7.964;2023-11-21T08:15:49;99730.50;;;11.71;74.47
29215;BME280;16252;49.816;7.964;2023-11-21T08:18:14;99738.53;;;11.71;74.27
29215;BME280;16252;49.816;7.964;2023-11-21T08:20:40;99730.63;;;11.70;74.21
29215;BME280;16252;49.816;7.964;2023-11-21T08:23:05;99743.22;;;11.79;74.35
29215;BME280;16252;49.816;7.964;2023-11-21T08:25:31;99715.06;;;11.64;74.37
29215;BME280;16252;49.816;7.964;2023-11-21T08:27:57;99748.09;;;11.85;74.21
29215;BME280;16252;49.816;7.964;2023-11-21T08:30:22;99760.13;;;11.91;74.36
29215;BME280;16252;49.816;7.964;2023-11-21T08:32:49;99736.91;;;11.80;74.39
29215;BME280;16252;49.816;7.964;2023-11-21T08:35:15;99760.13;;;11.91;74.29
29215;BME280;16252;49.816;7.964;2023-11-21T08:37:41;99759.03;;;11.93;74.18
29215;BME280;16252;49.816;7.964;2023-11-21T08:40:07;99770.22;;;11.99;74.23
29215;BME280;16252;49.816;7.964;2023-11-21T08:42:35;99765.22;;;11.94;73.82
29215;BME280;16252;49.816;7.964;2023-11-21T08:45:00;99757.72;;;11.88;73.94
29215;BME280;16252;49.816;7.964;2023-11-21T08:47:25;99784.91;;;12.04;73.97
29215;BME280;16252;49.816;7.964;2023-11-21T08:49:51;99792.38;;;12.01;73.77
29215;BME280;16252;49.816;7.964;2023-11-21T08:52:19;99784.06;;;12.04;73.65
29215;BME280;16252;49.816;7.964;2023-11-21T08:54:47;99774.38;;;11.91;73.40
29215;BME280;16252;49.816;7.964;2023-11-21T08:57:13;99781.06;;;11.97;73.37
29215;BME280;16252;49.816;7.964;2023-11-21T08:59:38;99787.28;;;11.98;73.51
29215;BME280;16252;49.816;7.964;2023-11-21T09:02:03;99776.69;;;11.96;73.43
29215;BME280;16252;49.816;7.964;2023-11-21T09:04:29;99769.41;;;11.87;73.27
29215;BME280;16252;49.816;7.964;2023-11-21T09:06:54;99754.56;;;11.83;73.07
29215;BME280;16252;49.816;7.964;2023-11-21T09:09:19;99791.19;;;11.93;73.36
29215;BME280;16252;49.816;7.964;2023-11-21T09:11:44;99772.22;;;11.85;73.38
29215;BME280;16252;49.816;7.964;2023-11-21T09:14:11;99798.41;;;11.93;73.48
29215;BME280;16252;49.816;7.964;2023-11-21T09:16:38;99802.03;;;11.92;73.42
29215;BME280;16252;49.816;7.964;2023-11-21T09:19:03;99807.63;;;12.00;73.47
29215;BME280;16252;49.816;7.964;2023-11-21T09:21:30;99799.59;;;12.00;73.11
29215;BME280;16252;49.816;7.964;2023-11-21T09:23:55;99815.97;;;12.07;73.37
29215;BME280;16252;49.816;7.964;2023-11-21T09:26:21;99818.38;;;12.10;73.13
29215;BME280;16252;49.816;7.964;2023-11-21T09:28:46;99790.47;;;11.91;73.16
29215;BME280;16252;49.816;7.964;2023-11-21T09:31:13;99821.50;;;12.05;73.27
29215;BME280;16252;49.816;7.964;2023-11-21T09:33:41;99818.09;;;12.03;73.22
29215;BME280;16252;49.816;7.964;2023-11-21T09:36:11;99834.94;;;12.15;72.88
29215;BME280;16252;49.816;7.964;2023-11-21T09:38:36;99832.94;;;12.28;72.60
29215;BME280;16252;49.816;7.964;2023-11-21T09:41:02;99822.44;;;12.04;72.74
29215;BME280;16252;49.816;7.964;2023-11-21T09:43:30;99836.06;;;12.12;72.78
29215;BME280;16252;49.816;7.964;2023-11-21T09:46:05;99836.78;;;12.14;73.33
29215;BME280;16252;49.816;7.964;2023-11-21T09:48:31;99842.28;;;12.13;73.29
29215;BME280;16252;49.816;7.964;2023-11-21T09:50:59;99847.78;;;12.11;73.09
29215;BME280;16252;49.816;7.964;2023-11-21T09:53:26;99850.91;;;12.17;73.19
29215;BME280;16252;49.816;7.964;2023-11-21T09:55:55;99854.59;;;12.16;73.29
29215;BME280;16252;49.816;7.964;2023-11-21T09:58:21;99861.81;;;12.25;73.49
29215;BME280;16252;49.816;7.964;2023-11-21T10:00:50;99842.28;;;12.13;73.11
29215;BME280;16252;49.816;7.964;2023-11-21T10:03:17;99862.09;;;12.22;73.08
29215;BME280;16252;49.816;7.964;2023-11-21T10:05:44;99881.06;;;12.30;73.16
29215;BME280;16252;49.816;7.964;2023-11-21T10:08:11;99872.06;;;12.31;73.44
29215;BME280;16252;49.816;7.964;2023-11-21T10:10:38;99847.50;;;12.14;73.35
29215;BME280;16252;49.816;7.964;2023-11-21T10:13:06;99867.00;;;12.38;73.44
29215;BME280;16252;49.816;7.964;2023-11-21T10:15:36;99810.03;;;12.03;73.52
29215;BME280;16252;49.816;7.964;2023-11-21T10:18:02;99810.53;;;11.97;73.32
29215;BME280;16252;49.816;7.964;2023-11-21T10:20:28;99865.03;;;12.40;73.38
29215;BME280;16252;49.816;7.964;2023-11-21T10:22:54;99828.72;;;12.14;73.23
29215;BME280;16252;49.816;7.964;2023-11-21T10:25:22;99841.38;;;12.24;73.30
29215;BME280;16252;49.816;7.964;2023-11-21T10:27:48;99892.13;;;12.57;72.99
29215;BME280;16252;49.816;7.964;2023-11-21T10:30:17;99888.25;;;12.50;72.85
29215;BME280;16252;49.816;7.964;2023-11-21T10:32:43;99882.66;;;12.53;72.92
29215;BME280;16252;49.816;7.964;2023-11-21T10:35:09;99880.66;;;12.55;72.95
29215;BME280;16252;49.816;7.964;2023-11-21T10:37:40;99907.59;;;12.75;72.94
29215;BME280;16252;49.816;7.964;2023-11-21T10:40:07;99903.69;;;12.79;72.77
29215;BME280;16252;49.816;7.964;2023-11-21T10:42:33;99870.53;;;12.59;73.24
29215;BME280;16252;49.816;7.964;2023-11-21T10:44:58;99876.78;;;12.69;72.77
29215;BME280;16252;49.816;7.964;2023-11-21T10:47:24;99881.34;;;12.78;73.16
29215;BME280;16252;49.816;7.964;2023-11-21T10:49:49;99864.38;;;12.78;72.68
29215;BME280;16252;49.816;7.964;2023-11-21T10:52:19;99855.81;;;12.84;72.28
29215;BME280;16252;49.816;7.964;2023-11-21T10:54:44;99825.50;;;12.72;72.50
29215;BME280;16252;49.816;7.964;2023-11-21T10:57:10;99820.72;;;12.76;72.10
29215;BME280;16252;49.816;7.964;2023-11-21T10:59:36;99862.66;;;13.08;72.12
29215;BME280;16252;49.816;7.964;2023-11-21T11:02:14;99892.78;;;13.42;71.95
29215;BME280;16252;49.816;7.964;2023-11-21T11:04:47;99835.81;;;13.08;71.80
29215;BME280;16252;49.816;7.964;2023-11-21T11:07:14;99881.03;;;13.43;71.18
29215;BME280;16252;49.816;7.964;2023-11-21T11:09:41;99869.84;;;13.38;71.06
29215;BME280;16252;49.816;7.964;2023-11-21T11:12:06;99872.84;;;13.44;70.72
29215;BME280;16252;49.816;7.964;2023-11-21T11:14:35;99882.31;;;13.49;70.56
29215;BME280;16252;49.816;7.964;2023-11-21T11:17:00;99869.44;;;13.42;70.27
29215;BME280;16252;49.816;7.964;2023-11-21T11:19:27;99847.47;;;13.28;70.18
29215;BME280;16252;49.816;7.964;2023-11-21T11:22:03;99863.34;;;13.40;69.84
29215;BME280;16252;49.816;7.964;2023-11-21T11:27:33;99886.97;;;13.47;69.97
29215;BME280;16252;49.816;7.964;2023-11-21T11:31:05;99864.59;;;13.36;69.24
29215;BME280;16252;49.816;7.964;2023-11-21T11:33:42;99855.84;;;13.34;70.14
29215;BME280;16252;49.816;7.964;2023-11-21T11:36:29;99840.38;;;13.27;70.23
29215;BME280;16252;49.816;7.964;2023-11-21T11:38:56;99826.34;;;13.13;70.69
29215;BME280;16252;49.816;7.964;2023-11-21T11:41:26;99888.44;;;13.60;70.32
29215;BME280;16252;49.816;7.964;2023-11-21T11:43:52;99881.22;;;13.80;70.54
29215;BME280;16252;49.816;7.964;2023-11-21T11:46:18;99872.31;;;13.70;70.65
29215;BME280;16252;49.816;7.964;2023-11-21T11:48:48;99882.78;;;13.83;69.93
29215;BME280;16252;49.816;7.964;2023-11-21T11:51:15;99856.84;;;13.72;69.32
29215;BME280;16252;49.816;7.964;2023-11-21T11:53:43;99850.09;;;13.68;69.09
29215;BME280;16252;49.816;7.964;2023-11-21T11:56:28;99834.25;;;13.65;68.40
29215;BME280;16252;49.816;7.964;2023-11-21T11:58:56;99864.66;;;13.75;68.82
29215;BME280;16252;49.816;7.964;2023-11-21T12:01:24;99877.97;;;13.86;68.91
29215;BME280;16252;49.816;7.964;2023-11-21T12:06:42;99880.09;;;13.83;68.34
29215;BME280;16252;49.816;7.964;2023-11-21T12:09:20;99871.75;;;13.76;68.11
29215;BME280;16252;49.816;7.964;2023-11-21T12:11:50;99866.94;;;13.70;68.69
29215;BME280;16252;49.816;7.964;2023-11-21T12:14:23;99865.38;;;13.68;68.75
29215;BME280;16252;49.816;7.964;2023-11-21T12:16:49;99851.75;;;13.59;68.91
29215;BME280;16252;49.816;7.964;2023-11-21T12:19:14;99835.91;;;13.56;69.24
29215;BME280;16252;49.816;7.964;2023-11-21T12:21:40;99885.31;;;13.84;69.03
29215;BME280;16252;49.816;7.964;2023-11-21T12:24:09;99890.28;;;13.89;68.69
29215;BME280;16252;49.816;7.964;2023-11-21T12:26:35;99885.91;;;13.98;68.80
29215;BME280;16252;49.816;7.964;2023-11-21T12:29:01;99908.00;;;14.11;67.88
29215;BME280;16252;49.816;7.964;2023-11-21T12:31:30;99913.06;;;14.14;67.17
29215;BME280;16252;49.816;7.964;2023-11-21T12:33:55;99903.75;;;14.08;67.79
29215;BME280;16252;49.816;7.964;2023-11-21T12:36:21;99885.63;;;14.01;67.73
29215;BME280;16252;49.816;7.964;2023-11-21T12:38:47;99899.63;;;14.14;67.53
29215;BME280;16252;49.816;7.964;2023-11-21T12:41:12;99863.38;;;13.89;67.60
29215;BME280;16252;49.816;7.964;2023-11-21T12:43:38;99854.47;;;13.88;67.26
29215;BME280;16252;49.816;7.964;2023-11-21T12:46:09;99919.19;;;14.26;67.41
29215;BME280;16252;49.816;7.964;2023-11-21T12:48:38;99906.28;;;14.10;67.24
29215;BME280;16252;49.816;7.964;2023-11-21T12:51:05;99881.25;;;13.90;67.01
29215;BME280;16252;49.816;7.964;2023-11-21T12:53:32;99861.09;;;13.75;67.24
29215;BME280;16252;49.816;7.964;2023-11-21T12:56:02;99883.63;;;13.83;66.76
29215;BME280;16252;49.816;7.964;2023-11-21T12:58:28;99855.44;;;13.58;66.90
29215;BME280;16252;49.816;7.964;2023-11-21T13:00:57;99905.28;;;13.92;66.55
29215;BME280;16252;49.816;7.964;2023-11-21T13:03:24;99888.72;;;13.77;66.12